createdAt,value
2018-04-19T00:01:21.280Z,15.09
2018-04-19T00:03:48.877Z,15.09
2018-04-19T00:06:16.508Z,15.02
2018-04-19T00:08:44.094Z,14.99
2018-04-19T00:11:11.738Z,14.93
2018-04-19T00:13:39.331Z,14.93
2018-04-19T00:16:06.941Z,14.91
2018-04-19T00:18:34.555Z,14.87
2018-04-19T00:21:02.155Z,14.78
2018-04-19T00:23:29.779Z,14.71
2018-04-19T00:25:57.430Z,14.65
2018-04-19T00:28:25.062Z,14.62
2018-04-19T00:30:52.656Z,14.51
2018-04-19T00:33:20.255Z,14.53
2018-04-19T00:35:47.880Z,14.55
2018-04-19T00:38:15.470Z,14.51
2018-04-19T00:40:43.086Z,14.53
2018-04-19T00:43:10.682Z,14.52
2018-04-19T00:45:38.588Z,14.53
2018-04-19T00:48:06.254Z,14.46
2018-04-19T00:50:33.846Z,14.38
2018-04-19T00:53:09.216Z,14.35
2018-04-19T00:55:36.818Z,14.26
2018-04-19T00:58:04.435Z,14.15
2018-04-19T01:00:32.030Z,14.18
2018-04-19T01:02:59.903Z,14.19
2018-04-19T01:05:27.501Z,14.19
2018-04-19T01:07:55.100Z,14.17
2018-04-19T01:10:22.745Z,14.07
2018-04-19T01:12:50.341Z,14.00
2018-04-19T01:15:17.965Z,13.96
2018-04-19T01:17:45.576Z,13.92
2018-04-19T01:20:13.434Z,13.90
2018-04-19T01:22:41.040Z,13.92
2018-04-19T01:25:08.663Z,13.91
2018-04-19T01:27:36.292Z,13.82
2018-04-19T01:30:03.895Z,13.74
2018-04-19T01:32:31.507Z,13.75
2018-04-19T01:34:59.096Z,13.67
2018-04-19T01:37:26.722Z,13.68
2018-04-19T01:39:54.313Z,13.63
2018-04-19T01:42:21.931Z,13.54
2018-04-19T01:44:49.666Z,13.54
2018-04-19T01:47:17.726Z,13.53
2018-04-19T01:49:45.319Z,13.47
2018-04-19T01:52:12.907Z,13.39
2018-04-19T01:54:40.519Z,13.40
2018-04-19T01:57:08.108Z,13.46
2018-04-19T01:59:36.250Z,13.33
2018-04-19T02:02:03.847Z,13.34
2018-04-19T02:04:31.465Z,13.30
2018-04-19T02:06:59.090Z,13.28
2018-04-19T02:09:26.687Z,13.25
2018-04-19T02:11:54.319Z,13.21
2018-04-19T02:14:21.911Z,13.21
2018-04-19T02:16:49.501Z,13.17
2018-04-19T02:19:17.118Z,13.21
2018-04-19T02:21:44.712Z,13.19
2018-04-19T02:24:12.322Z,13.20
2018-04-19T02:26:39.929Z,13.16
2018-04-19T02:29:07.877Z,13.19
2018-04-19T02:31:35.749Z,13.08
2018-04-19T02:34:03.343Z,13.11
2018-04-19T02:36:30.970Z,13.06
2018-04-19T02:38:58.582Z,13.05
2018-04-19T02:41:26.194Z,13.02
2018-04-19T02:43:53.791Z,13.08
2018-04-19T02:46:21.418Z,13.06
2018-04-19T02:48:49.003Z,13.06
2018-04-19T02:51:16.599Z,13.06
2018-04-19T02:53:44.218Z,13.04
2018-04-19T02:56:11.816Z,13.06
2018-04-19T02:58:39.421Z,12.99
2018-04-19T03:01:07.027Z,12.87
2018-04-19T03:03:34.672Z,12.76
2018-04-19T03:08:36.016Z,12.76
2018-04-19T03:11:03.616Z,12.65
2018-04-19T03:13:31.294Z,12.64
2018-04-19T03:15:58.900Z,12.67
2018-04-19T03:18:26.487Z,12.62
2018-04-19T03:20:54.105Z,12.55
2018-04-19T03:23:21.704Z,12.59
2018-04-19T03:25:49.479Z,12.59
2018-04-19T03:28:17.077Z,12.59
2018-04-19T03:30:44.678Z,12.57
2018-04-19T03:33:12.345Z,12.53
2018-04-19T03:35:39.950Z,12.54
2018-04-19T03:38:07.563Z,12.59
2018-04-19T03:40:35.160Z,12.56
2018-04-19T03:43:02.974Z,12.31
2018-04-19T03:45:30.569Z,12.40
2018-04-19T03:47:58.212Z,12.27
2018-04-19T03:50:25.822Z,12.28
2018-04-19T03:52:53.418Z,12.19
2018-04-19T03:55:21.040Z,12.27
2018-04-19T03:57:48.647Z,12.28
2018-04-19T04:00:16.277Z,12.27
2018-04-19T04:02:43.973Z,12.28
2018-04-19T04:05:11.699Z,12.23
2018-04-19T04:07:39.321Z,12.27
2018-04-19T04:10:06.915Z,12.26
2018-04-19T04:12:34.530Z,12.33
2018-04-19T04:15:02.128Z,12.19
2018-04-19T04:17:41.433Z,12.09
2018-04-19T04:20:20.852Z,12.11
2018-04-19T04:23:00.219Z,12.10
2018-04-19T04:25:27.807Z,12.06
2018-04-19T04:27:55.545Z,12.00
2018-04-19T04:30:23.138Z,11.98
2018-04-19T04:32:50.734Z,11.89
2018-04-19T04:35:18.403Z,11.77
2018-04-19T04:37:46.008Z,11.75
2018-04-19T04:40:13.632Z,11.72
2018-04-19T04:42:41.222Z,11.67
2018-04-19T04:45:09.055Z,11.68
2018-04-19T04:47:36.648Z,11.75
2018-04-19T04:50:04.244Z,11.73
2018-04-19T04:52:31.861Z,11.72
2018-04-19T04:54:59.451Z,11.68
2018-04-19T04:57:27.080Z,11.72
2018-04-19T04:59:54.684Z,11.78
2018-04-19T05:02:22.320Z,11.80
2018-04-19T05:04:49.923Z,11.78
2018-04-19T05:07:17.511Z,11.85
2018-04-19T05:09:45.177Z,11.87
2018-04-19T05:12:12.790Z,11.89
2018-04-19T05:14:40.399Z,11.90
2018-04-19T05:17:07.999Z,11.94
2018-04-19T05:19:35.592Z,11.96
2018-04-19T05:22:03.240Z,12.01
2018-04-19T05:24:30.841Z,12.02
2018-04-19T05:26:58.704Z,12.03
2018-04-19T05:29:26.306Z,12.07
2018-04-19T05:31:53.907Z,12.10
2018-04-19T05:34:21.519Z,12.23
2018-04-19T05:36:49.114Z,12.30
2018-04-19T05:39:16.750Z,12.38
2018-04-19T05:41:44.354Z,12.45
2018-04-19T05:44:11.955Z,12.52
2018-04-19T05:46:39.717Z,12.63
2018-04-19T05:49:07.298Z,12.71
2018-04-19T05:51:34.922Z,12.84
2018-04-19T05:54:02.521Z,12.87
2018-04-19T05:56:30.162Z,13.00
2018-04-19T05:58:57.755Z,13.20
2018-04-19T06:01:25.349Z,13.23
2018-04-19T06:03:52.965Z,13.30
2018-04-19T06:06:20.594Z,13.38
2018-04-19T06:08:48.219Z,13.46
2018-04-19T06:11:16.720Z,13.54
2018-04-19T06:13:44.350Z,13.62
2018-04-19T06:16:11.948Z,13.76
2018-04-19T06:18:39.534Z,13.88
2018-04-19T06:21:07.151Z,13.87
2018-04-19T06:23:34.751Z,14.09
2018-04-19T06:26:02.371Z,14.16
2018-04-19T06:28:29.957Z,14.23
2018-04-19T06:30:57.714Z,14.37
2018-04-19T06:33:25.326Z,14.52
2018-04-19T06:35:52.963Z,14.75
2018-04-19T06:38:20.576Z,14.70
2018-04-19T06:40:48.176Z,14.77
2018-04-19T06:43:15.799Z,14.90
2018-04-19T06:45:43.706Z,15.00
2018-04-19T06:48:11.566Z,15.13
2018-04-19T06:50:39.162Z,15.23
2018-04-19T06:53:06.761Z,15.37
2018-04-19T06:55:34.399Z,15.53
2018-04-19T06:58:01.992Z,15.64
2018-04-19T07:00:29.615Z,15.83
2018-04-19T07:02:57.251Z,15.98
2018-04-19T07:05:24.873Z,16.06
2018-04-19T07:07:52.541Z,16.12
2018-04-19T07:10:20.130Z,16.28
2018-04-19T07:12:47.787Z,16.33
2018-04-19T07:15:15.377Z,16.46
2018-04-19T07:17:43.108Z,16.56
2018-04-19T07:20:10.795Z,16.72
2018-04-19T07:22:38.500Z,16.81
2018-04-19T07:25:06.098Z,16.93
2018-04-19T07:27:33.717Z,17.03
2018-04-19T07:30:01.332Z,17.15
2018-04-19T07:32:29.220Z,17.23
2018-04-19T07:34:56.828Z,17.33
2018-04-19T07:37:24.414Z,17.50
2018-04-19T07:39:52.174Z,17.60
2018-04-19T07:42:20.067Z,17.67
2018-04-19T07:44:47.925Z,17.82
2018-04-19T07:47:15.534Z,17.94
2018-04-19T07:49:43.137Z,17.99
2018-04-19T07:52:10.756Z,18.12
2018-04-19T07:54:38.341Z,18.25
2018-04-19T07:57:05.991Z,18.39
2018-04-19T07:59:33.570Z,18.49
2018-04-19T08:02:01.174Z,18.82
2018-04-19T08:04:28.787Z,19.00
2018-04-19T08:06:56.370Z,19.34
2018-04-19T08:09:24.001Z,19.45
2018-04-19T08:11:51.905Z,19.66
2018-04-19T08:14:20.298Z,19.87
2018-04-19T08:16:47.945Z,19.92
2018-04-19T08:19:15.541Z,19.98
2018-04-19T08:21:43.159Z,20.16
2018-04-19T08:24:10.744Z,20.32
2018-04-19T08:26:38.362Z,20.47
2018-04-19T08:29:05.960Z,20.61
2018-04-19T08:31:33.916Z,20.61
2018-04-19T08:34:03.900Z,20.83
2018-04-19T08:36:31.807Z,20.94
2018-04-19T08:38:59.414Z,21.14
2018-04-19T08:41:27.018Z,21.13
2018-04-19T08:43:54.978Z,21.22
2018-04-19T08:46:22.581Z,21.23
2018-04-19T08:48:50.164Z,21.38
2018-04-19T08:51:17.782Z,21.43
2018-04-19T08:53:46.559Z,21.46
2018-04-19T08:56:14.491Z,21.60
2018-04-19T08:58:42.078Z,21.70
2018-04-19T09:01:09.715Z,21.76
2018-04-19T09:03:37.313Z,21.81
2018-04-19T09:06:04.896Z,21.92
2018-04-19T09:08:32.529Z,21.96
2018-04-19T09:11:00.139Z,22.02
2018-04-19T09:13:27.823Z,22.01
2018-04-19T09:15:55.382Z,22.11
2018-04-19T09:18:23.277Z,22.18
2018-04-19T09:20:50.874Z,22.21
2018-04-19T09:23:18.468Z,22.32
2018-04-19T09:25:46.091Z,22.54
2018-04-19T09:28:13.691Z,22.47
2018-04-19T09:30:41.302Z,22.57
2018-04-19T09:33:09.277Z,22.64
2018-04-19T09:35:37.126Z,22.71
2018-04-19T09:38:04.724Z,22.74
2018-04-19T09:40:32.305Z,22.81
2018-04-19T09:42:59.923Z,22.89
2018-04-19T09:45:27.519Z,22.81
2018-04-19T09:47:55.161Z,22.99
2018-04-19T09:50:22.747Z,22.98
2018-04-19T09:52:50.554Z,23.10
2018-04-19T09:55:18.140Z,23.00
2018-04-19T09:57:57.755Z,23.06
2018-04-19T10:00:25.358Z,23.17
2018-04-19T10:02:52.947Z,23.23
2018-04-19T10:05:20.569Z,23.31
2018-04-19T10:07:48.220Z,23.41
2018-04-19T10:10:15.837Z,23.52
2018-04-19T10:12:43.528Z,23.61
2018-04-19T10:15:11.142Z,23.63
2018-04-19T10:17:38.738Z,23.74
2018-04-19T10:20:06.331Z,23.79
2018-04-19T10:22:33.937Z,23.89
2018-04-19T10:25:03.258Z,23.85
2018-04-19T10:27:30.898Z,23.85
2018-04-19T10:29:58.484Z,23.98
2018-04-19T10:32:26.377Z,24.00
2018-04-19T10:34:53.961Z,24.19
2018-04-19T10:37:21.597Z,24.08
2018-04-19T10:39:49.214Z,24.15
2018-04-19T10:42:16.803Z,24.17
2018-04-19T10:44:44.591Z,24.17
2018-04-19T10:47:12.178Z,24.22
2018-04-19T10:49:40.216Z,24.32
2018-04-19T10:52:07.809Z,24.35
2018-04-19T10:54:35.390Z,24.47
2018-04-19T10:57:03.008Z,24.46
2018-04-19T10:59:30.602Z,24.57
2018-04-19T11:01:58.202Z,24.58
2018-04-19T11:04:25.886Z,24.64
2018-04-19T11:06:53.502Z,24.77
2018-04-19T11:09:21.130Z,24.80
2018-04-19T11:11:48.718Z,24.85
2018-04-19T11:14:16.335Z,24.96
2018-04-19T11:16:44.215Z,24.85
2018-04-19T11:19:11.819Z,25.00
2018-04-19T11:21:39.749Z,25.13
2018-04-19T11:24:07.821Z,25.07
2018-04-19T11:26:35.402Z,25.18
2018-04-19T11:29:03.915Z,25.13
2018-04-19T11:31:31.531Z,25.25
2018-04-19T11:33:59.121Z,25.32
2018-04-19T11:36:26.737Z,25.39
2018-04-19T11:38:54.330Z,25.44
2018-04-19T11:41:22.357Z,25.60
2018-04-19T11:43:49.959Z,25.63
2018-04-19T11:46:17.576Z,25.71
2018-04-19T11:48:45.215Z,25.72
2018-04-19T11:51:12.820Z,25.86
2018-04-19T11:53:40.868Z,26.02
2018-04-19T11:56:08.457Z,26.17
2018-04-19T11:58:36.045Z,26.47
2018-04-19T12:01:03.655Z,26.41
2018-04-19T12:03:31.545Z,26.49
2018-04-19T12:05:59.924Z,26.68
2018-04-19T12:08:27.538Z,26.62
2018-04-19T12:10:57.695Z,26.71
2018-04-19T12:13:25.558Z,26.97
2018-04-19T12:15:53.515Z,26.92
2018-04-19T12:18:21.958Z,26.87
2018-04-19T12:20:50.493Z,26.97
2018-04-19T12:23:18.354Z,27.00
2018-04-19T12:25:45.940Z,27.15
2018-04-19T12:28:23.210Z,27.06
2018-04-19T12:30:54.628Z,27.03
2018-04-19T12:33:23.340Z,27.29
2018-04-19T12:35:55.234Z,27.49
2018-04-19T12:38:24.215Z,27.55
2018-04-19T12:40:51.962Z,27.83
2018-04-19T12:43:23.334Z,28.13
2018-04-19T12:46:02.068Z,28.50
2018-04-19T12:51:23.075Z,28.71
2018-04-19T12:53:57.237Z,29.07
2018-04-19T12:56:25.877Z,29.90
2018-04-19T12:58:58.573Z,29.84
2018-04-19T13:01:35.949Z,30.06
2018-04-19T13:04:16.243Z,31.01
2018-04-19T13:06:56.154Z,32.21
2018-04-19T13:09:36.966Z,33.26
2018-04-19T13:12:23.761Z,33.01
2018-04-19T13:15:04.241Z,33.75
2018-04-19T13:17:44.468Z,34.66
2018-04-19T13:20:23.476Z,35.20
2018-04-19T13:23:04.428Z,34.87
2018-04-19T13:25:42.063Z,35.60
2018-04-19T13:28:20.457Z,35.50
2018-04-19T13:30:50.248Z,36.20
2018-04-19T13:33:29.612Z,35.58
2018-04-19T13:36:10.364Z,35.58
2018-04-19T13:38:47.538Z,37.06
2018-04-19T13:41:18.834Z,36.58
2018-04-19T13:43:52.532Z,36.89
2018-04-19T13:46:27.685Z,37.49
2018-04-19T13:49:04.953Z,37.65
2018-04-19T13:51:42.564Z,38.42
2018-04-19T13:54:20.247Z,38.70
2018-04-19T13:56:58.922Z,37.90
2018-04-19T13:59:35.784Z,38.29
2018-04-19T14:02:11.220Z,37.89
2018-04-19T14:04:55.166Z,37.47
2018-04-19T14:07:38.573Z,36.37
2018-04-19T14:12:58.398Z,34.66
2018-04-19T14:15:35.369Z,33.80
2018-04-19T14:18:05.738Z,32.93
2018-04-19T14:20:34.118Z,31.73
2018-04-19T14:23:01.801Z,30.69
2018-04-19T14:25:37.334Z,30.17
2018-04-19T14:28:05.839Z,29.80
2018-04-19T14:30:33.603Z,29.48
2018-04-19T14:33:01.415Z,28.92
2018-04-19T14:35:29.014Z,28.58
2018-04-19T14:37:56.627Z,28.56
2018-04-19T14:40:24.214Z,28.16
2018-04-19T14:42:51.856Z,28.05
2018-04-19T14:45:19.457Z,27.73
2018-04-19T14:47:47.238Z,27.68
2018-04-19T14:50:14.842Z,27.55
2018-04-19T14:52:42.450Z,27.51
2018-04-19T14:55:10.113Z,27.57
2018-04-19T14:57:37.966Z,27.56
2018-04-19T15:00:05.580Z,27.43
2018-04-19T15:02:33.185Z,27.51
2018-04-19T15:05:00.879Z,27.47
2018-04-19T15:07:31.749Z,27.45
2018-04-19T15:10:00.558Z,27.24
2018-04-19T15:12:28.373Z,27.12
2018-04-19T15:14:56.038Z,27.16
2018-04-19T15:17:23.763Z,27.07
2018-04-19T15:19:51.321Z,26.93
2018-04-19T15:22:18.941Z,26.88
2018-04-19T15:24:46.529Z,26.94
2018-04-19T15:27:14.160Z,26.94
2018-04-19T15:29:41.757Z,26.82
2018-04-19T15:32:09.345Z,26.72
2018-04-19T15:34:36.965Z,26.75
2018-04-19T15:37:05.705Z,26.76
2018-04-19T15:39:33.314Z,26.67
2018-04-19T15:42:00.905Z,26.72
2018-04-19T15:44:28.938Z,26.73
2018-04-19T15:46:56.538Z,26.62
2018-04-19T15:49:24.123Z,26.52
2018-04-19T15:51:51.732Z,26.49
2018-04-19T15:54:19.325Z,26.49
2018-04-19T15:56:46.971Z,26.44
2018-04-19T15:59:14.572Z,26.44
2018-04-19T16:01:42.345Z,26.46
2018-04-19T16:04:09.926Z,26.48
2018-04-19T16:06:37.522Z,26.46
2018-04-19T16:09:05.826Z,26.38
2018-04-19T16:11:33.423Z,26.44
2018-04-19T16:14:01.045Z,26.42
2018-04-19T16:16:28.649Z,26.40
2018-04-19T16:18:56.328Z,26.37
2018-04-19T16:21:23.882Z,26.44
2018-04-19T16:23:51.488Z,26.40
2018-04-19T16:26:19.092Z,26.45
2018-04-19T16:28:48.622Z,26.37
2018-04-19T16:31:14.332Z,26.44
2018-04-19T16:33:41.923Z,26.43
2018-04-19T16:36:09.743Z,26.41
2018-04-19T16:38:37.341Z,26.64
2018-04-19T16:41:04.944Z,26.82
2018-04-19T16:43:32.576Z,26.67
2018-04-19T16:46:00.171Z,26.71
2018-04-19T16:48:28.152Z,26.78
2018-04-19T16:50:55.763Z,27.10
2018-04-19T16:53:23.393Z,27.21
2018-04-19T16:55:50.999Z,27.47
2018-04-19T16:58:18.596Z,27.52
2018-04-19T17:00:46.206Z,27.36
2018-04-19T17:03:13.802Z,27.03
2018-04-19T17:05:41.414Z,26.78
2018-04-19T17:08:09.026Z,26.64
2018-04-19T17:10:36.895Z,26.65
2018-04-19T17:13:04.494Z,26.53
2018-04-19T17:15:32.232Z,26.68
2018-04-19T17:18:01.892Z,27.20
2018-04-19T17:20:29.497Z,27.59
2018-04-19T17:22:57.116Z,27.47
2018-04-19T17:25:24.702Z,27.13
2018-04-19T17:27:52.290Z,26.84
2018-04-19T17:30:21.177Z,26.66
2018-04-19T17:32:48.764Z,26.30
2018-04-19T17:35:16.383Z,26.12
2018-04-19T17:37:43.970Z,25.83
2018-04-19T17:40:11.559Z,25.60
2018-04-19T17:42:39.165Z,25.40
2018-04-19T17:45:06.847Z,25.29
2018-04-19T17:47:34.801Z,25.18
2018-04-19T17:50:02.394Z,25.11
2018-04-19T17:52:29.990Z,24.85
2018-04-19T17:54:57.618Z,24.68
2018-04-19T17:57:25.213Z,24.58
2018-04-19T17:59:52.829Z,24.52
2018-04-19T18:02:20.568Z,24.35
2018-04-19T18:04:48.191Z,24.21
2018-04-19T18:07:15.793Z,24.12
2018-04-19T18:09:43.382Z,23.99
2018-04-19T18:12:11.124Z,23.88
2018-04-19T18:14:38.717Z,23.74
2018-04-19T18:17:06.327Z,23.66
2018-04-19T18:19:33.919Z,23.54
2018-04-19T18:22:01.638Z,23.43
2018-04-19T18:24:29.223Z,23.30
2018-04-19T18:26:56.816Z,23.21
2018-04-19T18:29:25.324Z,23.12
2018-04-19T18:31:52.946Z,23.02
2018-04-19T18:34:20.800Z,22.95
2018-04-19T18:36:48.442Z,22.84
2018-04-19T18:39:16.021Z,22.86
2018-04-19T18:41:43.633Z,22.72
2018-04-19T18:44:11.227Z,22.63
2018-04-19T18:46:38.855Z,22.52
2018-04-19T18:49:06.460Z,22.44
2018-04-19T18:51:34.133Z,22.36
2018-04-19T18:54:01.751Z,22.33
2018-04-19T18:56:29.414Z,22.28
2018-04-19T18:58:57.445Z,22.20
2018-04-19T19:01:25.036Z,22.11
2018-04-19T19:03:52.632Z,22.01
2018-04-19T19:06:20.250Z,22.01
2018-04-19T19:08:47.961Z,21.93
2018-04-19T19:11:15.749Z,21.87
2018-04-19T19:13:43.472Z,21.78
2018-04-19T19:16:11.077Z,21.70
2018-04-19T19:18:50.527Z,21.66
2018-04-19T19:21:18.120Z,21.61
2018-04-19T19:23:45.752Z,21.52
2018-04-19T19:26:13.345Z,21.54
2018-04-19T19:28:41.150Z,21.45
2018-04-19T19:31:08.750Z,21.40
2018-04-19T19:33:36.345Z,21.43
2018-04-19T19:36:03.957Z,21.38
2018-04-19T19:38:32.554Z,21.33
2018-04-19T19:41:00.232Z,21.26
2018-04-19T19:43:27.821Z,21.21
2018-04-19T19:45:55.597Z,21.15
2018-04-19T19:48:23.191Z,21.10
2018-04-19T19:50:50.799Z,21.05
2018-04-19T19:53:18.726Z,20.95
2018-04-19T19:55:46.611Z,20.88
2018-04-19T19:58:14.242Z,20.80
2018-04-19T20:00:41.987Z,20.67
2018-04-19T20:03:10.168Z,20.63
2018-04-19T20:05:38.088Z,20.57
2018-04-19T20:08:05.874Z,20.57
2018-04-19T20:10:33.721Z,20.52
2018-04-19T20:13:01.512Z,20.48
2018-04-19T20:15:29.260Z,20.43
2018-04-19T20:17:56.940Z,20.39
2018-04-19T20:20:24.733Z,20.33
2018-04-19T20:22:52.323Z,20.27
2018-04-19T20:25:19.914Z,20.19
2018-04-19T20:27:47.523Z,20.14
2018-04-19T20:30:15.125Z,20.10
2018-04-19T20:32:42.741Z,20.03
2018-04-19T20:35:10.342Z,20.03
2018-04-19T20:37:38.203Z,19.96
2018-04-19T20:40:06.181Z,19.87
2018-04-19T20:42:33.899Z,19.85
2018-04-19T20:45:01.529Z,19.82
2018-04-19T20:47:29.123Z,19.80
2018-04-19T20:49:56.734Z,19.74
2018-04-19T20:52:24.346Z,19.62
2018-04-19T20:54:52.209Z,19.59
2018-04-19T20:57:19.800Z,19.54
2018-04-19T20:59:47.390Z,19.51
2018-04-19T21:02:14.991Z,19.49
2018-04-19T21:04:42.596Z,19.46
2018-04-19T21:07:10.231Z,19.48
2018-04-19T21:09:37.825Z,19.42
2018-04-19T21:12:05.742Z,19.35
2018-04-19T21:14:33.343Z,19.33
2018-04-19T21:17:00.939Z,19.32
2018-04-19T21:19:28.556Z,19.18
2018-04-19T21:21:56.149Z,19.12
2018-04-19T21:24:23.792Z,19.04
2018-04-19T21:26:51.393Z,19.01
2018-04-19T21:29:19.022Z,18.89
2018-04-19T21:31:46.616Z,18.82
2018-04-19T21:34:14.359Z,18.80
2018-04-19T21:36:41.950Z,18.76
2018-04-19T21:39:09.624Z,18.70
2018-04-19T21:41:37.285Z,18.67
2018-04-19T21:44:04.875Z,18.57
2018-04-19T21:46:32.494Z,18.50
2018-04-19T21:49:00.078Z,18.46
2018-04-19T21:51:27.931Z,18.41
2018-04-19T21:53:55.517Z,18.36
2018-04-19T21:56:23.120Z,18.35
2018-04-19T21:58:50.734Z,18.37
2018-04-19T22:01:18.324Z,18.30
2018-04-19T22:03:45.939Z,18.22
2018-04-19T22:06:13.532Z,18.12
2018-04-19T22:08:41.146Z,18.04
2018-04-19T22:11:08.743Z,17.98
2018-04-19T22:13:36.331Z,17.89
2018-04-19T22:16:03.940Z,17.88
2018-04-19T22:18:31.527Z,17.85
2018-04-19T22:20:59.150Z,17.77
2018-04-19T22:23:26.762Z,17.74
2018-04-19T22:25:54.595Z,17.61
2018-04-19T22:28:22.195Z,17.57
2018-04-19T22:30:49.787Z,17.53
2018-04-19T22:33:17.411Z,17.51
2018-04-19T22:35:44.999Z,17.49
2018-04-19T22:38:12.890Z,17.58
2018-04-19T22:40:40.499Z,17.53
2018-04-19T22:43:08.145Z,17.48
2018-04-19T22:45:35.736Z,17.44
2018-04-19T22:48:03.332Z,17.40
2018-04-19T22:50:30.944Z,17.32
2018-04-19T22:52:58.541Z,17.28
2018-04-19T22:55:26.154Z,17.27
2018-04-19T22:57:53.773Z,17.27
2018-04-19T23:00:21.423Z,17.21
2018-04-19T23:02:49.013Z,17.17
2018-04-19T23:05:16.685Z,17.10
2018-04-19T23:07:44.302Z,17.11
2018-04-19T23:10:11.898Z,16.97
2018-04-19T23:12:39.518Z,16.98
2018-04-19T23:15:07.119Z,16.98
2018-04-19T23:17:35.011Z,16.97
2018-04-19T23:20:02.606Z,16.95
2018-04-19T23:22:35.426Z,16.92
2018-04-19T23:25:03.032Z,16.88
2018-04-19T23:27:30.631Z,16.75
2018-04-19T23:29:58.282Z,16.71
2018-04-19T23:32:25.884Z,16.61
2018-04-19T23:34:53.495Z,16.64
2018-04-19T23:37:21.090Z,16.63
2018-04-19T23:39:49.066Z,16.57
2018-04-19T23:42:16.667Z,16.57
2018-04-19T23:44:44.276Z,16.55
2018-04-19T23:47:11.899Z,16.53
2018-04-19T23:49:39.489Z,16.44
2018-04-19T23:52:07.107Z,16.46
2018-04-19T23:54:34.705Z,16.44
2018-04-19T23:57:02.506Z,16.42
2018-04-19T23:59:30.104Z,16.32
